sensor_id;sensor_type;location;lat;lon;timestamp;pressure;altitude;pressure_sealevel;temperature;humidity
42603;BME280;28233;55.748;48.752;2023-04-25T00:01:31;99636.50;;;12.19;42.24
42603;BME280;28233;55.748;48.752;2023-04-25T00:03:38;99621.13;;;12.18;42.23
42603;BME280;28233;55.748;48.752;2023-04-25T00:05:41;99639.25;;;12.19;42.23
42603;BME280;28233;55.748;48.752;2023-04-25T00:07:45;99625.78;;;12.18;42.24
42603;BME280;28233;55.748;48.752;2023-04-25T00:09:48;99629.53;;;12.13;42.52
42603;BME280;28233;55.748;48.752;2023-04-25T00:11:51;99633.44;;;12.12;42.54
42603;BME280;28233;55.748;48.752;2023-04-25T00:13:53;99631.00;;;12.11;42.29
42603;BME280;28233;55.748;48.752;2023-04-25T00:15:56;99640.75;;;12.08;42.85
42603;BME280;28233;55.748;48.752;2023-04-25T00:18:00;99635.59;;;12.07;42.91
42603;BME280;28233;55.748;48.752;2023-04-25T00:20:03;99634.75;;;12.06;42.66
42603;BME280;28233;55.748;48.752;2023-04-25T00:22:12;99642.53;;;12.04;42.63
42603;BME280;28233;55.748;48.752;2023-04-25T00:24:15;99638.50;;;12.01;43.12
42603;BME280;28233;55.748;48.752;2023-04-25T00:26:18;99636.09;;;12.00;42.95
42603;BME280;28233;55.748;48.752;2023-04-25T00:28:20;99635.28;;;11.99;42.93
42603;BME280;28233;55.748;48.752;2023-04-25T00:30:23;99639.16;;;11.98;43.04
42603;BME280;28233;55.748;48.752;2023-04-25T00:32:26;99633.97;;;11.97;43.30
42603;BME280;28233;55.748;48.752;2023-04-25T00:34:29;99642.56;;;11.95;43.10
42603;BME280;28233;55.748;48.752;2023-04-25T00:36:31;99644.19;;;11.96;43.32
42603;BME280;28233;55.748;48.752;2023-04-25T00:38:34;99635.13;;;11.96;43.13
42603;BME280;28233;55.748;48.752;2023-04-25T00:40:37;99642.22;;;11.97;42.93
42603;BME280;28233;55.748;48.752;2023-04-25T00:42:40;99641.09;;;11.98;42.93
42603;BME280;28233;55.748;48.752;2023-04-25T00:44:44;99650.16;;;11.98;43.35
42603;BME280;28233;55.748;48.752;2023-04-25T00:46:47;99634.78;;;11.97;43.12
42603;BME280;28233;55.748;48.752;2023-04-25T00:48:51;99635.13;;;11.96;43.09
42603;BME280;28233;55.748;48.752;2023-04-25T00:50:57;99635.13;;;11.96;43.68
42603;BME280;28233;55.748;48.752;2023-04-25T00:53:00;99640.13;;;11.94;43.45
42603;BME280;28233;55.748;48.752;2023-04-25T00:55:03;99648.41;;;11.94;43.63
42603;BME280;28233;55.748;48.752;2023-04-25T00:57:06;99645.97;;;11.92;43.73
42603;BME280;28233;55.748;48.752;2023-04-25T00:59:09;99638.06;;;11.91;43.45
42603;BME280;28233;55.748;48.752;2023-04-25T01:01:12;99643.88;;;11.89;43.63
42603;BME280;28233;55.748;48.752;2023-04-25T01:03:16;99645.81;;;11.89;43.34
42603;BME280;28233;55.748;48.752;2023-04-25T01:05:19;99641.91;;;11.90;43.52
42603;BME280;28233;55.748;48.752;2023-04-25T01:07:22;99637.03;;;11.87;43.26
42603;BME280;28233;55.748;48.752;2023-04-25T01:09:25;99648.91;;;11.87;43.29
42603;BME280;28233;55.748;48.752;2023-04-25T01:11:28;99639.00;;;11.86;43.31
42603;BME280;28233;55.748;48.752;2023-04-25T01:13:31;99633.81;;;11.84;43.01
42603;BME280;28233;55.748;48.752;2023-04-25T01:15:34;99637.72;;;11.83;43.23
42603;BME280;28233;55.748;48.752;2023-04-25T01:17:38;99638.81;;;11.82;43.54
42603;BME280;28233;55.748;48.752;2023-04-25T01:19:43;99631.41;;;11.83;43.54
42603;BME280;28233;55.748;48.752;2023-04-25T01:21:48;99631.72;;;11.81;43.61
42603;BME280;28233;55.748;48.752;2023-04-25T01:23:51;99629.28;;;11.80;44.01
42603;BME280;28233;55.748;48.752;2023-04-25T01:25:54;99630.09;;;11.80;43.74
42603;BME280;28233;55.748;48.752;2023-04-25T01:27:57;99624.59;;;11.80;43.66
42603;BME280;28233;55.748;48.752;2023-04-25T01:30:01;99630.09;;;11.80;43.93
42603;BME280;28233;55.748;48.752;2023-04-25T01:32:07;99631.22;;;11.79;43.74
42603;BME280;28233;55.748;48.752;2023-04-25T01:34:11;99632.84;;;11.80;43.92
42603;BME280;28233;55.748;48.752;2023-04-25T01:36:15;99629.09;;;11.85;43.41
42603;BME280;28233;55.748;48.752;2023-04-25T01:38:17;99632.69;;;11.85;43.47
42603;BME280;28233;55.748;48.752;2023-04-25T01:40:21;99635.13;;;11.87;43.42
42603;BME280;28233;55.748;48.752;2023-04-25T01:42:24;99629.63;;;11.87;43.22
42603;BME280;28233;55.748;48.752;2023-04-25T01:44:27;99624.13;;;11.87;43.46
42603;BME280;28233;55.748;48.752;2023-04-25T01:46:30;99622.19;;;11.88;43.08
42603;BME280;28233;55.748;48.752;2023-04-25T01:48:33;99629.63;;;11.87;43.36
42603;BME280;28233;55.748;48.752;2023-04-25T01:50:37;99634.81;;;11.89;43.18
42603;BME280;28233;55.748;48.752;2023-04-25T01:52:40;99626.22;;;11.90;43.25
42603;BME280;28233;55.748;48.752;2023-04-25T01:54:43;99627.84;;;11.91;43.45
42603;BME280;28233;55.748;48.752;2023-04-25T01:56:50;99630.59;;;11.91;43.49
42603;BME280;28233;55.748;48.752;2023-04-25T01:58:53;99630.28;;;11.93;43.43
42603;BME280;28233;55.748;48.752;2023-04-25T02:00:56;99629.59;;;11.96;43.08
42603;BME280;28233;55.748;48.752;2023-04-25T02:02:59;99632.84;;;11.98;43.44
42603;BME280;28233;55.748;48.752;2023-04-25T02:05:02;99625.88;;;12.00;43.61
42603;BME280;28233;55.748;48.752;2023-04-25T02:07:05;99633.81;;;12.02;42.92
42603;BME280;28233;55.748;48.752;2023-04-25T02:09:08;99626.34;;;12.02;43.33
42603;BME280;28233;55.748;48.752;2023-04-25T02:11:10;99622.94;;;12.05;43.74
42603;BME280;28233;55.748;48.752;2023-04-25T02:13:13;99626.50;;;12.06;43.63
42603;BME280;28233;55.748;48.752;2023-04-25T02:15:16;99621.94;;;12.10;43.57
42603;BME280;28233;55.748;48.752;2023-04-25T02:17:19;99634.41;;;12.16;43.43
42603;BME280;28233;55.748;48.752;2023-04-25T02:19:23;99636.50;;;12.19;43.45
42603;BME280;28233;55.748;48.752;2023-04-25T02:21:26;99636.66;;;12.23;43.07
42603;BME280;28233;55.748;48.752;2023-04-25T02:23:28;99639.72;;;12.30;43.22
42603;BME280;28233;55.748;48.752;2023-04-25T02:25:31;99640.31;;;12.36;42.80
42603;BME280;28233;55.748;48.752;2023-04-25T02:27:34;99633.03;;;12.40;42.68
42603;BME280;28233;55.748;48.752;2023-04-25T02:29:37;99640.78;;;12.46;42.55
42603;BME280;28233;55.748;48.752;2023-04-25T02:31:40;99638.94;;;12.51;42.46
42603;BME280;28233;55.748;48.752;2023-04-25T02:33:43;99640.72;;;12.55;42.49
42603;BME280;28233;55.748;48.752;2023-04-25T02:35:46;99639.72;;;12.60;42.34
42603;BME280;28233;55.748;48.752;2023-04-25T02:37:48;99641.00;;;12.62;42.20
42603;BME280;28233;55.748;48.752;2023-04-25T02:39:51;99639.19;;;12.66;42.47
42603;BME280;28233;55.748;48.752;2023-04-25T02:41:54;99641.28;;;12.69;42.33
42603;BME280;28233;55.748;48.752;2023-04-25T02:43:56;99642.25;;;12.74;42.81
42603;BME280;28233;55.748;48.752;2023-04-25T02:45:59;99639.28;;;12.79;42.89
42603;BME280;28233;55.748;48.752;2023-04-25T02:48:03;99641.25;;;12.78;43.06
42603;BME280;28233;55.748;48.752;2023-04-25T02:50:06;99652.22;;;12.87;42.95
42603;BME280;28233;55.748;48.752;2023-04-25T02:52:09;99648.00;;;12.89;43.37
42603;BME280;28233;55.748;48.752;2023-04-25T02:54:11;99656.38;;;12.93;43.37
42603;BME280;28233;55.748;48.752;2023-04-25T02:56:14;99651.84;;;12.97;42.92
42603;BME280;28233;55.748;48.752;2023-04-25T02:58:16;99651.63;;;13.02;42.76
42603;BME280;28233;55.748;48.752;2023-04-25T03:00:19;99650.63;;;13.07;42.61
42603;BME280;28233;55.748;48.752;2023-04-25T03:02:22;99657.56;;;13.13;42.75
42603;BME280;28233;55.748;48.752;2023-04-25T03:04:25;99661.28;;;13.17;43.34
42603;BME280;28233;55.748;48.752;2023-04-25T03:06:27;99656.22;;;13.19;43.40
42603;BME280;28233;55.748;48.752;2023-04-25T03:08:30;99661.19;;;13.26;43.89
42603;BME280;28233;55.748;48.752;2023-04-25T03:10:34;99668.03;;;13.28;44.67
42603;BME280;28233;55.748;48.752;2023-04-25T03:12:37;99671.72;;;13.32;44.53
42603;BME280;28233;55.748;48.752;2023-04-25T03:14:40;99669.94;;;13.37;44.13
42603;BME280;28233;55.748;48.752;2023-04-25T03:16:43;99670.41;;;13.39;43.98
42603;BME280;28233;55.748;48.752;2023-04-25T03:18:45;99669.72;;;13.42;43.55
42603;BME280;28233;55.748;48.752;2023-04-25T03:20:48;99667.91;;;13.46;44.11
42603;BME280;28233;55.748;48.752;2023-04-25T03:22:50;99676.78;;;13.51;43.67
42603;BME280;28233;55.748;48.752;2023-04-25T03:24:53;99664.72;;;13.56;44.61
42603;BME280;28233;55.748;48.752;2023-04-25T03:26:56;99670.50;;;13.63;45.85
42603;BME280;28233;55.748;48.752;2023-04-25T03:28:58;99677.31;;;13.66;46.30
42603;BME280;28233;55.748;48.752;2023-04-25T03:31:01;99674.91;;;13.64;46.42
42603;BME280;28233;55.748;48.752;2023-04-25T03:33:03;99673.53;;;13.70;45.25
42603;BME280;28233;55.748;48.752;2023-04-25T03:35:06;99672.97;;;13.77;44.61
42603;BME280;28233;55.748;48.752;2023-04-25T03:37:09;99680.41;;;13.85;45.42
42603;BME280;28233;55.748;48.752;2023-04-25T03:39:12;99672.22;;;13.89;45.90
42603;BME280;28233;55.748;48.752;2023-04-25T03:41:15;99672.81;;;13.94;46.47
42603;BME280;28233;55.748;48.752;2023-04-25T03:43:18;99680.53;;;14.01;46.88
42603;BME280;28233;55.748;48.752;2023-04-25T03:45:20;99670.09;;;14.07;46.48
42603;BME280;28233;55.748;48.752;2023-04-25T03:47:23;99667.59;;;14.14;47.33
42603;BME280;28233;55.748;48.752;2023-04-25T03:49:26;99674.47;;;14.20;47.73
42603;BME280;28233;55.748;48.752;2023-04-25T03:51:28;99674.72;;;14.27;47.87
42603;BME280;28233;55.748;48.752;2023-04-25T03:53:31;99669.44;;;14.34;47.34
42603;BME280;28233;55.748;48.752;2023-04-25T03:55:34;99668.88;;;14.41;47.08
42603;BME280;28233;55.748;48.752;2023-04-25T03:57:36;99667.97;;;14.49;46.13
42603;BME280;28233;55.748;48.752;2023-04-25T03:59:39;99672.75;;;14.61;46.55
42603;BME280;28233;55.748;48.752;2023-04-25T04:01:42;99677.34;;;14.69;47.32
42603;BME280;28233;55.748;48.752;2023-04-25T04:03:44;99684.72;;;14.77;45.65
42603;BME280;28233;55.748;48.752;2023-04-25T04:05:48;99683.31;;;14.84;47.31
42603;BME280;28233;55.748;48.752;2023-04-25T04:07:51;99677.69;;;14.92;45.35
42603;BME280;28233;55.748;48.752;2023-04-25T04:09:53;99673.63;;;15.02;45.03
42603;BME280;28233;55.748;48.752;2023-04-25T04:11:56;99667.84;;;15.07;45.50
42603;BME280;28233;55.748;48.752;2023-04-25T04:13:59;99669.00;;;15.18;45.29
42603;BME280;28233;55.748;48.752;2023-04-25T04:16:02;99684.78;;;15.30;44.60
42603;BME280;28233;55.748;48.752;2023-04-25T04:18:06;99678.31;;;15.38;44.20
42603;BME280;28233;55.748;48.752;2023-04-25T04:20:09;99684.84;;;15.46;44.88
42603;BME280;28233;55.748;48.752;2023-04-25T04:22:12;99674.00;;;15.53;43.38
42603;BME280;28233;55.748;48.752;2023-04-25T04:24:14;99665.44;;;15.58;43.57
42603;BME280;28233;55.748;48.752;2023-04-25T04:26:19;99676.03;;;15.69;43.40
42603;BME280;28233;55.748;48.752;2023-04-25T04:28:21;99679.03;;;15.76;43.71
42603;BME280;28233;55.748;48.752;2023-04-25T04:30:24;99678.41;;;15.82;42.92
42603;BME280;28233;55.748;48.752;2023-04-25T04:32:27;99669.94;;;15.91;42.94
42603;BME280;28233;55.748;48.752;2023-04-25T04:34:30;99676.94;;;16.01;43.27
42603;BME280;28233;55.748;48.752;2023-04-25T04:36:33;99674.00;;;16.10;44.01
42603;BME280;28233;55.748;48.752;2023-04-25T04:38:36;99677.75;;;16.17;43.05
42603;BME280;28233;55.748;48.752;2023-04-25T04:40:41;99673.66;;;16.27;42.29
42603;BME280;28233;55.748;48.752;2023-04-25T04:42:45;99665.97;;;16.36;41.78
42603;BME280;28233;55.748;48.752;2023-04-25T04:44:47;99667.41;;;16.46;42.02
42603;BME280;28233;55.748;48.752;2023-04-25T04:46:50;99662.84;;;16.54;41.72
42603;BME280;28233;55.748;48.752;2023-04-25T04:48:54;99671.72;;;16.59;42.67
42603;BME280;28233;55.748;48.752;2023-04-25T04:50:58;99668.31;;;16.66;42.52
42603;BME280;28233;55.748;48.752;2023-04-25T04:53:01;99669.66;;;16.72;42.82
42603;BME280;28233;55.748;48.752;2023-04-25T04:55:05;99670.66;;;16.80;42.35
42603;BME280;28233;55.748;48.752;2023-04-25T04:57:08;99665.91;;;16.80;41.77
42603;BME280;28233;55.748;48.752;2023-04-25T04:59:10;99671.63;;;16.87;42.59
42603;BME280;28233;55.748;48.752;2023-04-25T05:01:13;99672.50;;;16.92;41.90
42603;BME280;28233;55.748;48.752;2023-04-25T05:03:18;99675.00;;;16.97;42.13
42603;BME280;28233;55.748;48.752;2023-04-25T05:05:21;99671.06;;;16.98;42.08
42603;BME280;28233;55.748;48.752;2023-04-25T05:07:23;99675.91;;;17.01;42.50
42603;BME280;28233;55.748;48.752;2023-04-25T05:09:27;99662.47;;;17.03;41.55
42603;BME280;28233;55.748;48.752;2023-04-25T05:11:29;99659.03;;;17.09;41.17
42603;BME280;28233;55.748;48.752;2023-04-25T05:13:32;99647.28;;;17.16;41.36
42603;BME280;28233;55.748;48.752;2023-04-25T05:15:35;99655.78;;;17.23;41.42
42603;BME280;28233;55.748;48.752;2023-04-25T05:17:38;99656.38;;;17.32;41.22
42603;BME280;28233;55.748;48.752;2023-04-25T05:19:41;99656.16;;;17.41;40.97
42603;BME280;28233;55.748;48.752;2023-04-25T05:21:44;99657.84;;;17.46;42.65
42603;BME280;28233;55.748;48.752;2023-04-25T05:23:46;99660.69;;;17.49;41.43
42603;BME280;28233;55.748;48.752;2023-04-25T05:25:49;99654.47;;;17.56;41.46
42603;BME280;28233;55.748;48.752;2023-04-25T05:27:51;99647.38;;;17.59;41.11
42603;BME280;28233;55.748;48.752;2023-04-25T05:29:54;99654.06;;;17.73;40.69
42603;BME280;28233;55.748;48.752;2023-04-25T05:31:57;99649.16;;;17.86;40.04
42603;BME280;28233;55.748;48.752;2023-04-25T05:33:59;99644.97;;;17.96;39.77
42603;BME280;28233;55.748;48.752;2023-04-25T05:36:02;99649.81;;;17.99;39.23
42603;BME280;28233;55.748;48.752;2023-04-25T05:38:05;99645.97;;;18.07;38.60
42603;BME280;28233;55.748;48.752;2023-04-25T05:40:08;99644.13;;;18.15;40.14
42603;BME280;28233;55.748;48.752;2023-04-25T05:42:11;99651.00;;;18.21;38.71
42603;BME280;28233;55.748;48.752;2023-04-25T05:44:13;99643.97;;;18.27;38.71
42603;BME280;28233;55.748;48.752;2023-04-25T05:46:18;99647.28;;;18.36;37.52
42603;BME280;28233;55.748;48.752;2023-04-25T05:48:20;99652.25;;;18.47;37.02
42603;BME280;28233;55.748;48.752;2023-04-25T05:50:23;99648.03;;;18.56;37.45
42603;BME280;28233;55.748;48.752;2023-04-25T05:52:26;99643.81;;;18.66;37.29
42603;BME280;28233;55.748;48.752;2023-04-25T05:54:28;99640.25;;;18.69;37.03
42603;BME280;28233;55.748;48.752;2023-04-25T05:56:31;99639.97;;;18.74;36.67
42603;BME280;28233;55.748;48.752;2023-04-25T05:58:33;99633.72;;;18.81;37.59
42603;BME280;28233;55.748;48.752;2023-04-25T06:00:38;99644.13;;;18.84;37.60
42603;BME280;28233;55.748;48.752;2023-04-25T06:02:41;99642.59;;;18.90;37.44
42603;BME280;28233;55.748;48.752;2023-04-25T06:04:43;99643.94;;;19.00;37.27
42603;BME280;28233;55.748;48.752;2023-04-25T06:06:46;99647.66;;;19.08;36.91
42603;BME280;28233;55.748;48.752;2023-04-25T06:08:49;99646.53;;;19.12;36.20
42603;BME280;28233;55.748;48.752;2023-04-25T06:10:52;99637.50;;;19.22;36.10
42603;BME280;28233;55.748;48.752;2023-04-25T06:12:55;99644.38;;;19.32;35.51
42603;BME280;28233;55.748;48.752;2023-04-25T06:14:58;99647.59;;;19.34;36.21
42603;BME280;28233;55.748;48.752;2023-04-25T06:17:00;99644.47;;;19.39;37.01
42603;BME280;28233;55.748;48.752;2023-04-25T06:19:08;99646.84;;;19.37;36.07
42603;BME280;28233;55.748;48.752;2023-04-25T06:21:11;99648.72;;;19.26;37.13
42603;BME280;28233;55.748;48.752;2023-04-25T06:23:13;99638.28;;;19.23;37.06
42603;BME280;28233;55.748;48.752;2023-04-25T06:25:16;99636.38;;;19.27;38.34
42603;BME280;28233;55.748;48.752;2023-04-25T06:27:19;99638.44;;;19.34;39.34
42603;BME280;28233;55.748;48.752;2023-04-25T06:29:21;99625.28;;;19.31;38.24
42603;BME280;28233;55.748;48.752;2023-04-25T06:31:24;99637.59;;;19.30;37.83
42603;BME280;28233;55.748;48.752;2023-04-25T06:33:27;99627.66;;;19.32;38.39
42603;BME280;28233;55.748;48.752;2023-04-25T06:35:30;99628.16;;;19.38;38.18
42603;BME280;28233;55.748;48.752;2023-04-25T06:37:33;99626.59;;;19.40;38.02
42603;BME280;28233;55.748;48.752;2023-04-25T06:39:36;99637.00;;;19.47;37.66
42603;BME280;28233;55.748;48.752;2023-04-25T06:41:42;99633.44;;;19.47;37.98
42603;BME280;28233;55.748;48.752;2023-04-25T06:43:44;99633.84;;;19.49;37.51
42603;BME280;28233;55.748;48.752;2023-04-25T06:45:47;99627.94;;;19.54;38.64
42603;BME280;28233;55.748;48.752;2023-04-25T06:47:50;99637.16;;;19.58;37.44
42603;BME280;28233;55.748;48.752;2023-04-25T06:49:52;99634.78;;;19.60;37.38
42603;BME280;28233;55.748;48.752;2023-04-25T06:51:55;99634.88;;;19.67;39.02
42603;BME280;28233;55.748;48.752;2023-04-25T06:53:58;99636.91;;;19.70;39.38
42603;BME280;28233;55.748;48.752;2023-04-25T06:56:01;99636.63;;;19.79;39.20
42603;BME280;28233;55.748;48.752;2023-04-25T06:58:05;99632.28;;;19.81;38.44
42603;BME280;28233;55.748;48.752;2023-04-25T07:00:08;99638.31;;;19.87;38.07
42603;BME280;28233;55.748;48.752;2023-04-25T07:02:12;99636.84;;;19.97;38.35
42603;BME280;28233;55.748;48.752;2023-04-25T07:04:14;99642.44;;;20.00;38.05
42603;BME280;28233;55.748;48.752;2023-04-25T07:06:18;99644.88;;;20.05;38.00
42603;BME280;28233;55.748;48.752;2023-04-25T07:08:20;99654.09;;;20.10;37.23
42603;BME280;28233;55.748;48.752;2023-04-25T07:10:23;99652.94;;;20.14;36.89
42603;BME280;28233;55.748;48.752;2023-04-25T07:12:26;99652.50;;;20.12;37.48
42603;BME280;28233;55.748;48.752;2023-04-25T07:14:28;99645.00;;;20.16;37.12
42603;BME280;28233;55.748;48.752;2023-04-25T07:16:31;99644.63;;;20.18;37.02
42603;BME280;28233;55.748;48.752;2023-04-25T07:18:34;99645.84;;;20.20;36.36
42603;BME280;28233;55.748;48.752;2023-04-25T07:20:36;99654.66;;;20.26;36.01
42603;BME280;28233;55.748;48.752;2023-04-25T07:22:39;99646.69;;;20.28;37.24
42603;BME280;28233;55.748;48.752;2023-04-25T07:24:41;99649.94;;;20.34;36.89
42603;BME280;28233;55.748;48.752;2023-04-25T07:26:44;99632.38;;;20.33;37.51
42603;BME280;28233;55.748;48.752;2023-04-25T07:28:47;99644.41;;;20.41;36.50
42603;BME280;28233;55.748;48.752;2023-04-25T07:30:53;99636.09;;;20.44;36.63
42603;BME280;28233;55.748;48.752;2023-04-25T07:32:55;99652.44;;;20.46;36.46
42603;BME280;28233;55.748;48.752;2023-04-25T07:34:58;99653.31;;;20.54;35.83
42603;BME280;28233;55.748;48.752;2023-04-25T07:37:01;99651.81;;;20.63;36.65
42603;BME280;28233;55.748;48.752;2023-04-25T07:39:03;99651.44;;;20.65;37.04
42603;BME280;28233;55.748;48.752;2023-04-25T07:41:06;99648.28;;;20.70;36.76
42603;BME280;28233;55.748;48.752;2023-04-25T07:43:09;99654.31;;;20.76;37.44
42603;BME280;28233;55.748;48.752;2023-04-25T07:45:14;99650.34;;;20.80;36.86
42603;BME280;28233;55.748;48.752;2023-04-25T07:47:17;99655.88;;;20.73;36.31
42603;BME280;28233;55.748;48.752;2023-04-25T07:49:21;99654.31;;;20.76;36.23
42603;BME280;28233;55.748;48.752;2023-04-25T07:51:24;99655.97;;;20.84;36.44
42603;BME280;28233;55.748;48.752;2023-04-25T07:53:26;99647.97;;;20.86;35.47
42603;BME280;28233;55.748;48.752;2023-04-25T07:55:29;99648.38;;;20.84;35.78
42603;BME280;28233;55.748;48.752;2023-04-25T07:57:32;99655.19;;;20.90;35.03
42603;BME280;28233;55.748;48.752;2023-04-25T07:59:34;99664.44;;;20.98;36.03
42603;BME280;28233;55.748;48.752;2023-04-25T08:01:37;99652.91;;;21.07;35.66
42603;BME280;28233;55.748;48.752;2023-04-25T08:03:40;99649.78;;;21.12;35.50
42603;BME280;28233;55.748;48.752;2023-04-25T08:05:43;99639.84;;;21.22;36.78
42603;BME280;28233;55.748;48.752;2023-04-25T08:07:46;99657.41;;;21.26;35.64
42603;BME280;28233;55.748;48.752;2023-04-25T08:09:48;99661.78;;;21.20;35.80
42603;BME280;28233;55.748;48.752;2023-04-25T08:11:51;99655.38;;;21.12;36.12
42603;BME280;28233;55.748;48.752;2023-04-25T08:13:54;99653.69;;;21.04;36.02
42603;BME280;28233;55.748;48.752;2023-04-25T08:15:56;99647.66;;;20.95;36.38
42603;BME280;28233;55.748;48.752;2023-04-25T08:17:59;99649.28;;;20.99;36.11
42603;BME280;28233;55.748;48.752;2023-04-25T08:20:02;99651.66;;;20.94;35.31
42603;BME280;28233;55.748;48.752;2023-04-25T08:22:08;99656.44;;;20.93;36.22
42603;BME280;28233;55.748;48.752;2023-04-25T08:24:11;99661.56;;;20.87;35.95
42603;BME280;28233;55.748;48.752;2023-04-25T08:26:13;99665.09;;;20.77;35.38
42603;BME280;28233;55.748;48.752;2023-04-25T08:28:17;99651.84;;;20.67;36.03
42603;BME280;28233;55.748;48.752;2023-04-25T08:30:19;99658.56;;;20.62;36.11
42603;BME280;28233;55.748;48.752;2023-04-25T08:32:23;99663.34;;;20.58;36.72
42603;BME280;28233;55.748;48.752;2023-04-25T08:34:26;99658.94;;;20.57;36.10
42603;BME280;28233;55.748;48.752;2023-04-25T08:36:28;99660.47;;;20.55;36.69
42603;BME280;28233;55.748;48.752;2023-04-25T08:38:34;99665.59;;;20.45;36.99
42603;BME280;28233;55.748;48.752;2023-04-25T08:40:38;99650.84;;;20.45;36.58
42603;BME280;28233;55.748;48.752;2023-04-25T08:42:42;99661.34;;;20.59;36.71
42603;BME280;28233;55.748;48.752;2023-04-25T08:44:45;99660.94;;;20.57;37.40
42603;BME280;28233;55.748;48.752;2023-04-25T08:46:49;99654.06;;;20.51;37.22
42603;BME280;28233;55.748;48.752;2023-04-25T08:48:53;99651.22;;;20.43;37.17
42603;BME280;28233;55.748;48.752;2023-04-25T08:51:01;99652.41;;;20.42;37.65
42603;BME280;28233;55.748;48.752;2023-04-25T08:53:08;99651.19;;;20.40;37.56
42603;BME280;28233;55.748;48.752;2023-04-25T08:55:13;99657.25;;;20.49;36.89
42603;BME280;28233;55.748;48.752;2023-04-25T08:57:17;99652.44;;;20.46;37.93
42603;BME280;28233;55.748;48.752;2023-04-25T08:59:21;99652.47;;;20.49;37.67
42603;BME280;28233;55.748;48.752;2023-04-25T09:01:25;99657.28;;;20.53;37.57
42603;BME280;28233;55.748;48.752;2023-04-25T09:03:28;99661.22;;;20.48;37.90
42603;BME280;28233;55.748;48.752;2023-04-25T09:05:34;99656.28;;;20.31;37.51
42603;BME280;28233;55.748;48.752;2023-04-25T09:07:37;99644.25;;;20.23;38.32
42603;BME280;28233;55.748;48.752;2023-04-25T09:09:40;99649.06;;;20.26;37.93
42603;BME280;28233;55.748;48.752;2023-04-25T09:11:42;99651.00;;;20.18;37.61
42603;BME280;28233;55.748;48.752;2023-04-25T09:13:45;99647.00;;;20.19;37.94
42603;BME280;28233;55.748;48.752;2023-04-25T09:15:56;99653.38;;;20.20;37.64
42603;BME280;28233;55.748;48.752;2023-04-25T09:17:59;99651.78;;;20.19;37.67
42603;BME280;28233;55.748;48.752;2023-04-25T09:20:06;99646.13;;;20.12;38.18
42603;BME280;28233;55.748;48.752;2023-04-25T09:22:10;99644.94;;;20.09;38.24
42603;BME280;28233;55.748;48.752;2023-04-25T09:24:13;99651.28;;;20.06;38.33
42603;BME280;28233;55.748;48.752;2023-04-25T09:26:17;99650.03;;;20.03;38.75
42603;BME280;28233;55.748;48.752;2023-04-25T09:28:24;99648.44;;;20.02;38.32
42603;BME280;28233;55.748;48.752;2023-04-25T09:30:33;99637.69;;;20.04;39.01
42603;BME280;28233;55.748;48.752;2023-04-25T09:32:36;99646.50;;;20.06;38.16
42603;BME280;28233;55.748;48.752;2023-04-25T09:34:43;99649.22;;;20.03;38.67
42603;BME280;28233;55.748;48.752;2023-04-25T09:36:46;99656.03;;;20.05;37.95
42603;BME280;28233;55.748;48.752;2023-04-25T09:38:48;99654.06;;;20.06;37.79
42603;BME280;28233;55.748;48.752;2023-04-25T09:40:51;99654.09;;;20.10;37.65
42603;BME280;28233;55.748;48.752;2023-04-25T09:42:54;99650.03;;;20.03;38.37
42603;BME280;28233;55.748;48.752;2023-04-25T09:44:58;99642.06;;;20.02;38.71
42603;BME280;28233;55.748;48.752;2023-04-25T09:47:01;99644.06;;;20.01;39.15
42603;BME280;28233;55.748;48.752;2023-04-25T09:49:08;99649.22;;;19.99;39.03
42603;BME280;28233;55.748;48.752;2023-04-25T09:51:13;99648.50;;;20.06;38.70
42603;BME280;28233;55.748;48.752;2023-04-25T09:53:16;99641.72;;;20.11;38.12
42603;BME280;28233;55.748;48.752;2023-04-25T09:55:19;99648.22;;;20.18;38.87
42603;BME280;28233;55.748;48.752;2023-04-25T09:57:24;99645.56;;;20.33;38.36
42603;BME280;28233;55.748;48.752;2023-04-25T09:59:27;99649.25;;;20.44;38.87
42603;BME280;28233;55.748;48.752;2023-04-25T10:01:34;99645.22;;;20.41;38.19
42603;BME280;28233;55.748;48.752;2023-04-25T10:03:44;99640.44;;;20.42;38.49
42603;BME280;28233;55.748;48.752;2023-04-25T10:05:52;99646.88;;;20.46;37.81
42603;BME280;28233;55.748;48.752;2023-04-25T10:07:56;99650.91;;;20.52;38.49
42603;BME280;28233;55.748;48.752;2023-04-25T10:10:04;99643.06;;;20.68;38.23
42603;BME280;28233;55.748;48.752;2023-04-25T10:12:08;99639.13;;;20.73;38.04
42603;BME280;28233;55.748;48.752;2023-04-25T10:14:12;99648.75;;;20.79;37.98
42603;BME280;28233;55.748;48.752;2023-04-25T10:16:15;99636.47;;;20.91;37.04
42603;BME280;28233;55.748;48.752;2023-04-25T10:18:19;99643.25;;;20.94;36.75
42603;BME280;28233;55.748;48.752;2023-04-25T10:20:22;99647.66;;;20.95;36.58
42603;BME280;28233;55.748;48.752;2023-04-25T10:22:35;99640.84;;;20.92;36.06
42603;BME280;28233;55.748;48.752;2023-04-25T10:24:38;99636.06;;;20.89;36.39
42603;BME280;28233;55.748;48.752;2023-04-25T10:26:42;99641.22;;;20.87;36.27
42603;BME280;28233;55.748;48.752;2023-04-25T10:31:03;99651.09;;;20.70;36.29
42603;BME280;28233;55.748;48.752;2023-04-25T10:33:17;99640.66;;;20.67;36.27
42603;BME280;28233;55.748;48.752;2023-04-25T10:35:29;99632.56;;;20.55;36.43
42603;BME280;28233;55.748;48.752;2023-04-25T10:37:35;99628.94;;;20.47;36.31
42603;BME280;28233;55.748;48.752;2023-04-25T10:39:42;99635.03;;;20.60;36.71
42603;BME280;28233;55.748;48.752;2023-04-25T10:41:51;99629.06;;;20.58;36.40
42603;BME280;28233;55.748;48.752;2023-04-25T10:44:00;99614.56;;;20.45;36.41
42603;BME280;28233;55.748;48.752;2023-04-25T10:46:19;99637.81;;;20.60;36.93
42603;BME280;28233;55.748;48.752;2023-04-25T10:48:26;99629.34;;;20.53;36.82